Main page
METAR-TAF:

METAR-TAF

Airports :

Larnaca International Airport

Larnaca, Cyprus

latitude: 34-53N, longitude: 033-38E, elevation: 2 m

Current weather observation

The report was made 29 minutes ago, at 05:00 UTC
Wind 4 kt from the North/Northwest
Temperature 15°C
Humidity 82%
Pressure 1026 hPa
Visibility 10 km or more
no clouds below 1500 m and no cumulonimbus

METAR: LCLK 240500Z 34004KT CAVOK 15/12 Q1026 NOSIG

Time: 08:29 (05:29 UTC)

Forecast

The report was made 5 hours and 59 minutes ago, at 23:30 UTC
Forecast valid from 24 at 00 UTC to 24 at 24 UTC
Wind 6 kt from the North/Northwest
Visibility 10 km or more
Few clouds at a height of 2500 ft
Probability 30% :
Temporary
from 24 at 06 UTC to 24 at 24 UTC
Visibility: 5000 m
widespread dust
Becoming
from 24 at 08 UTC to 24 at 12 UTC
Wind 10 kt from the South/Southeast
Becoming
from 24 at 15 UTC to 24 at 18 UTC
Wind 6 kt from the Northwest

TAF: LCLK 232330Z 2400/2424 33006KT 9999 FEW025 PROB30 TEMPO 2406/2424 5000 DU BECMG 2408/2412 16010KT BECMG 2415/2418 32006KT

Weather observations and forecasts of more than 4000 airports (METAR and TAF reports).

The available stations are represented by yellow and red dots on the map.

Hover mouse over dot to see the name of the station.

Then click to see weather observations and forecasts.

To change the map : click on the green buttons with a black cross to zoom in, on the green button with a dash to zoom out, or on the green arrows for adjacent maps.


METAR-TAF: